KDUG

Bisbee Douglas International Airport

Douglas Bisbee, Arizona, USA
METAR KDUG 232056Z AUTO 29006KT 10SM SCT090 BKN110 14/13 A3001 RMK AO2 LTG DSNT SW AND W SLP119 60006 T01440133 58004
Observed Flight Rules
Oct-23 @ 20:56 UTC (12 minutes ago) Visual Flight Rules
Wind Visibility Clouds
290° at 6 knots 10 miles
  • Scattered at 9,000' AGL
  • Broken at 11,000' AGL
Temperatures Readings
Current 14°C / 57°F
Dewpoint 13°C / 55°F
Humidity 94%
Altimeter 30.01" Hg
Pressure 1011.9 hPa
Elevation 1265
METAR KDUG 232056Z AUTO 29006KT 10SM SCT090 BKN110 14/13 A3001 RMK AO2 LTG DSNT SW AND W SLP119 60006 T01440133 58004
Observed Flight Rules
Oct-23 @ 20:56 UTC
(12 minutes ago)
VFR
Wind Visibility
290° at 6 knots 10 miles
Clouds
  • Scattered at 9,000' AGL
  • Broken at 11,000' AGL
Temperature Dewpoint
14°C / 57°F 13°C / 55°F
Humidity Altimeter Pressure
94% 30.01" Hg 1011.9 hPa